Time;durP1;ratioP1;P1;durP2;ratioP2;P2;SDS_P1;SDS_P2;PMS_P1;PMS_P2;Temp;Humidity;BMP_temperature;BMP_pressure;BME280_temperature;BME280_humidity;BME280_pressure;Samples;Min_cycle;Max_cycle;Signal;HPM_P1;HPM_P2
2022/03/02 00:00:08;;;;;;;26.33;14.68;;;6.20;99.90;;;;;;6122737;23;20017;-84
2022/03/02 00:02:34;;;;;;;22.08;13.15;;;6.20;99.90;;;;;;6097482;23;20536;-85
2022/03/02 00:05:00;;;;;;;27.25;13.85;;;6.20;99.90;;;;;;6122048;23;20025;-84
2022/03/02 00:07:25;;;;;;;23.85;14.65;;;6.10;99.90;;;;;;6122554;23;20441;-84
2022/03/02 00:09:51;;;;;;;23.70;13.57;;;6.10;99.90;;;;;;6121193;23;20028;-84
2022/03/02 00:12:17;;;;;;;21.88;12.38;;;6.10;99.90;;;;;;6121864;23;20066;-84
2022/03/02 00:14:43;;;;;;;22.20;13.23;;;6.10;99.90;;;;;;6121392;23;20017;-84
2022/03/02 00:17:09;;;;;;;22.30;12.98;;;6.10;99.90;;;;;;6095862;23;20014;-85
2022/03/02 00:19:35;;;;;;;21.20;11.77;;;6.10;99.90;;;;;;6098109;23;20072;-85
2022/03/02 00:22:01;;;;;;;22.13;13.05;;;6.10;99.90;;;;;;6123205;23;20435;-84
2022/03/02 00:24:27;;;;;;;21.38;12.63;;;6.10;99.90;;;;;;6121083;23;20076;-84
2022/03/02 00:26:52;;;;;;;22.38;13.23;;;6.10;99.90;;;;;;6123323;23;20347;-85
2022/03/02 00:29:18;;;;;;;21.55;12.63;;;6.10;99.90;;;;;;6097779;23;20018;-85
2022/03/02 00:31:44;;;;;;;23.30;13.25;;;6.10;99.90;;;;;;6098117;23;20044;-84
2022/03/02 00:34:10;;;;;;;22.10;14.20;;;6.10;99.90;;;;;;6120943;23;20375;-84
2022/03/02 00:36:35;;;;;;;20.13;11.55;;;6.10;99.90;;;;;;6095808;23;20014;-85
2022/03/02 00:39:01;;;;;;;19.70;12.32;;;6.10;99.90;;;;;;6121702;23;20009;-85
2022/03/02 00:41:27;;;;;;;20.23;11.93;;;6.10;99.90;;;;;;6098508;23;20026;-84
2022/03/02 00:43:53;;;;;;;20.33;11.77;;;6.10;99.90;;;;;;6121391;23;20010;-84
2022/03/02 00:46:20;;;;;;;20.65;11.45;;;6.00;99.90;;;;;;6097304;23;20021;-84
2022/03/02 00:48:46;;;;;;;21.02;12.82;;;6.10;99.90;;;;;;6098468;23;20017;-85
2022/03/02 00:51:12;;;;;;;22.65;12.65;;;6.10;99.90;;;;;;6121853;23;20014;-84
2022/03/02 00:53:38;;;;;;;21.83;12.63;;;6.00;99.90;;;;;;6097404;23;20321;-84
2022/03/02 00:56:04;;;;;;;21.75;12.20;;;6.00;99.90;;;;;;6121092;23;20010;-85
2022/03/02 00:58:30;;;;;;;20.83;12.13;;;6.00;99.90;;;;;;6122017;23;20097;-84
2022/03/02 01:00:56;;;;;;;22.55;12.30;;;6.00;99.90;;;;;;6097666;23;20077;-84
2022/03/02 01:03:21;;;;;;;20.00;12.27;;;6.00;99.90;;;;;;6097618;23;20017;-84
2022/03/02 01:05:47;;;;;;;22.73;12.52;;;6.00;99.90;;;;;;6122623;23;20017;-85
2022/03/02 01:08:13;;;;;;;21.83;13.25;;;6.00;99.90;;;;;;6121419;23;20029;-84
2022/03/02 01:10:38;;;;;;;22.90;13.52;;;6.00;99.90;;;;;;6121957;23;20014;-85
2022/03/02 01:13:04;;;;;;;22.95;13.77;;;6.00;99.90;;;;;;6098436;23;20017;-85
2022/03/02 01:15:30;;;;;;;20.45;12.85;;;6.00;99.90;;;;;;6120704;23;20018;-85
2022/03/02 01:17:55;;;;;;;22.85;12.98;;;6.00;99.90;;;;;;6121239;23;20084;-85
2022/03/02 01:20:21;;;;;;;21.05;12.40;;;6.00;99.90;;;;;;6120874;23;20278;-85
2022/03/02 01:22:47;;;;;;;23.83;14.13;;;5.90;99.90;;;;;;6120555;23;20018;-85
2022/03/02 01:25:13;;;;;;;22.17;12.57;;;5.90;99.90;;;;;;6096267;23;20037;-85
2022/03/02 01:27:39;;;;;;;22.55;12.40;;;5.90;99.90;;;;;;6122240;23;20013;-84
2022/03/02 01:30:06;;;;;;;22.52;13.10;;;5.90;99.90;;;;;;6121261;23;20108;-84
2022/03/02 01:32:32;;;;;;;22.10;12.63;;;5.90;99.90;;;;;;6121274;23;20010;-84
2022/03/02 01:34:58;;;;;;;23.95;13.32;;;5.90;99.90;;;;;;6096504;23;20032;-85
2022/03/02 01:37:23;;;;;;;23.92;13.60;;;5.90;99.90;;;;;;6121475;23;20017;-84
2022/03/02 01:39:49;;;;;;;24.65;13.43;;;5.90;99.90;;;;;;6123044;23;20072;-85
2022/03/02 01:42:15;;;;;;;22.23;13.50;;;5.90;99.90;;;;;;6122145;23;20357;-84
2022/03/02 01:44:40;;;;;;;24.30;13.73;;;5.90;99.90;;;;;;6097742;23;20026;-84
2022/03/02 01:47:07;;;;;;;22.40;12.77;;;5.80;99.90;;;;;;6122051;23;20029;-84
2022/03/02 01:49:33;;;;;;;20.15;12.57;;;5.80;99.90;;;;;;6097577;23;20366;-85
2022/03/02 01:51:59;;;;;;;21.38;13.65;;;5.80;99.90;;;;;;6120953;23;20014;-85
2022/03/02 01:54:25;;;;;;;25.48;14.85;;;5.80;99.90;;;;;;6096509;23;20097;-85
2022/03/02 01:56:51;;;;;;;18.83;11.45;;;5.80;99.90;;;;;;6121927;23;20081;-85
2022/03/02 01:59:16;;;;;;;22.30;13.77;;;5.80;99.90;;;;;;6096408;23;20017;-84
2022/03/02 02:01:42;;;;;;;22.42;13.82;;;5.80;99.90;;;;;;6121059;23;20025;-83
2022/03/02 02:04:08;;;;;;;23.77;12.63;;;5.80;99.90;;;;;;6119029;23;20025;-82
2022/03/02 02:06:34;;;;;;;23.10;11.77;;;5.80;99.90;;;;;;6094740;23;20022;-82
2022/03/02 02:09:02;;;;;;;21.33;12.85;;;5.80;99.90;;;;;;6119770;23;20474;-82
2022/03/02 02:11:30;;;;;;;21.58;13.52;;;5.80;99.90;;;;;;6097060;23;20010;-82
2022/03/02 02:13:56;;;;;;;23.45;12.48;;;5.80;99.90;;;;;;6096281;23;20009;-82
2022/03/02 02:16:22;;;;;;;22.45;12.90;;;5.70;99.90;;;;;;6096466;23;20069;-83
2022/03/02 02:18:50;;;;;;;20.00;12.35;;;5.70;99.90;;;;;;6121933;23;20014;-83
2022/03/02 02:21:16;;;;;;;21.05;12.75;;;5.70;99.90;;;;;;6119446;23;20072;-82
2022/03/02 02:23:41;;;;;;;24.73;14.45;;;5.70;99.90;;;;;;6096745;23;20032;-82
2022/03/02 02:26:07;;;;;;;23.90;13.77;;;5.70;99.90;;;;;;6120973;23;20018;-82
2022/03/02 02:28:34;;;;;;;20.15;12.45;;;5.70;99.90;;;;;;6095797;23;20017;-82
2022/03/02 02:31:01;;;;;;;25.25;14.77;;;5.70;99.90;;;;;;6120810;23;20014;-83
2022/03/02 02:33:27;;;;;;;22.77;13.60;;;5.70;99.90;;;;;;6119546;23;20044;-82
2022/03/02 02:35:54;;;;;;;23.50;13.57;;;5.70;99.90;;;;;;6096469;23;20074;-83
2022/03/02 02:38:21;;;;;;;19.15;12.05;;;5.70;99.90;;;;;;6095476;23;20385;-82
2022/03/02 02:40:48;;;;;;;21.15;12.48;;;5.70;99.90;;;;;;6097178;23;20018;-82
2022/03/02 02:43:15;;;;;;;30.55;13.75;;;5.70;99.90;;;;;;6098065;23;20014;-82
2022/03/02 02:45:41;;;;;;;21.52;12.48;;;5.70;99.90;;;;;;6096581;23;20817;-82
2022/03/02 02:48:07;;;;;;;22.80;13.52;;;5.70;99.90;;;;;;6096178;23;20486;-82
2022/03/02 02:50:34;;;;;;;22.77;13.18;;;5.70;99.90;;;;;;6119912;23;20301;-82
2022/03/02 02:53:03;;;;;;;21.45;12.63;;;5.70;99.90;;;;;;6118780;23;20436;-82
2022/03/02 02:55:30;;;;;;;23.98;13.45;;;5.70;99.90;;;;;;6121310;23;20025;-82
2022/03/02 02:57:57;;;;;;;19.92;11.73;;;5.70;99.90;;;;;;6120784;23;20025;-82
2022/03/02 03:00:25;;;;;;;21.67;12.43;;;5.70;99.90;;;;;;6119928;23;20418;-82
2022/03/02 03:02:52;;;;;;;20.63;12.23;;;5.60;99.90;;;;;;6096537;23;20489;-82
2022/03/02 03:05:21;;;;;;;19.13;11.52;;;5.70;99.90;;;;;;6119271;23;20022;-82
2022/03/02 03:07:47;;;;;;;24.08;14.00;;;5.70;99.90;;;;;;6095889;23;20025;-82
2022/03/02 03:10:14;;;;;;;20.67;12.18;;;5.70;99.90;;;;;;6119645;23;20411;-82
2022/03/02 03:12:42;;;;;;;22.10;13.27;;;5.70;99.90;;;;;;6094807;23;20014;-82
2022/03/02 03:15:10;;;;;;;23.23;13.73;;;5.70;99.90;;;;;;6095802;23;20021;-82
2022/03/02 03:17:35;;;;;;;25.65;14.85;;;5.70;99.90;;;;;;6120156;23;20104;-82
2022/03/02 03:20:02;;;;;;;23.15;13.32;;;5.70;99.90;;;;;;6120656;23;20056;-83
2022/03/02 03:22:28;;;;;;;23.55;13.40;;;5.60;99.90;;;;;;6095264;23;20040;-82
2022/03/02 03:24:54;;;;;;;22.75;13.30;;;5.60;99.90;;;;;;6121566;23;20018;-82
2022/03/02 03:27:19;;;;;;;29.63;14.95;;;5.60;99.90;;;;;;6095441;23;20821;-83
2022/03/02 03:29:45;;;;;;;21.42;13.50;;;5.60;99.90;;;;;;6096042;23;20018;-82
2022/03/02 03:32:11;;;;;;;22.25;12.90;;;5.60;99.90;;;;;;6094467;23;20200;-82
2022/03/02 03:34:36;;;;;;;22.70;12.90;;;5.60;99.90;;;;;;6120393;23;20121;-82
2022/03/02 03:37:02;;;;;;;21.77;12.45;;;5.60;99.90;;;;;;6095440;23;20010;-82
2022/03/02 03:39:28;;;;;;;22.40;13.10;;;5.60;99.90;;;;;;6118807;23;20013;-83
2022/03/02 03:41:55;;;;;;;25.13;14.20;;;5.50;99.90;;;;;;6119719;23;20046;-82
2022/03/02 03:44:23;;;;;;;24.05;13.27;;;5.50;99.90;;;;;;6120463;23;20022;-82
2022/03/02 03:46:49;;;;;;;23.33;12.98;;;5.50;99.90;;;;;;6095849;23;20032;-82
2022/03/02 03:49:15;;;;;;;23.85;14.35;;;5.50;99.90;;;;;;6095476;23;20014;-82
2022/03/02 03:51:41;;;;;;;23.40;14.50;;;5.50;99.90;;;;;;6118488;23;20455;-82
2022/03/02 03:54:08;;;;;;;25.13;15.45;;;5.50;99.90;;;;;;6119742;23;20010;-82
2022/03/02 03:56:34;;;;;;;28.98;16.13;;;5.50;99.90;;;;;;6094892;23;20076;-82
2022/03/02 03:59:00;;;;;;;24.25;13.40;;;5.50;99.90;;;;;;6120334;23;20014;-82
2022/03/02 04:01:27;;;;;;;24.67;13.68;;;5.50;99.90;;;;;;6119837;23;20028;-82
2022/03/02 04:03:52;;;;;;;25.17;13.95;;;5.40;99.90;;;;;;6094737;23;20089;-82
2022/03/02 04:06:18;;;;;;;23.75;14.55;;;5.40;99.90;;;;;;6119516;23;20745;-83
2022/03/02 04:08:44;;;;;;;24.33;13.85;;;5.40;99.90;;;;;;6095214;23;20466;-82
2022/03/02 04:11:10;;;;;;;23.65;14.07;;;5.40;99.90;;;;;;6118757;23;20159;-81
2022/03/02 04:13:36;;;;;;;27.65;15.27;;;5.40;99.90;;;;;;6120101;23;20014;-83
2022/03/02 04:16:02;;;;;;;22.75;14.15;;;5.40;99.90;;;;;;6118313;23;20286;-82
2022/03/02 04:18:28;;;;;;;29.88;15.73;;;5.40;99.90;;;;;;6119177;23;20020;-83
2022/03/02 04:20:54;;;;;;;25.25;14.38;;;5.40;99.90;;;;;;6095517;23;20014;-82
2022/03/02 04:23:21;;;;;;;23.50;13.90;;;5.40;99.90;;;;;;6094516;23;20474;-83
2022/03/02 04:25:48;;;;;;;25.08;14.55;;;5.40;99.90;;;;;;6095546;23;20332;-82
2022/03/02 04:28:13;;;;;;;24.40;15.05;;;5.30;99.90;;;;;;6119781;23;20443;-83
2022/03/02 04:30:39;;;;;;;24.90;14.23;;;5.30;99.90;;;;;;6119164;23;20085;-83
2022/03/02 04:33:05;;;;;;;27.30;15.43;;;5.30;99.90;;;;;;6118088;23;20052;-82
2022/03/02 04:35:31;;;;;;;24.90;14.05;;;5.30;99.90;;;;;;6094956;23;20017;-82
2022/03/02 04:37:57;;;;;;;24.58;14.30;;;5.30;99.90;;;;;;6093785;23;20754;-82
2022/03/02 04:40:23;;;;;;;25.67;14.63;;;5.30;99.90;;;;;;6119600;23;20028;-82
2022/03/02 04:42:49;;;;;;;25.80;15.35;;;5.30;99.90;;;;;;6120235;23;20014;-82
2022/03/02 04:45:15;;;;;;;26.67;16.00;;;5.30;99.90;;;;;;6094674;23;20088;-82
2022/03/02 04:47:42;;;;;;;23.95;13.32;;;5.30;99.90;;;;;;6119964;23;20109;-82
2022/03/02 04:50:11;;;;;;;29.48;15.63;;;5.20;99.90;;;;;;6118849;23;20018;-82
2022/03/02 04:52:37;;;;;;;28.60;15.73;;;5.20;99.90;;;;;;6118428;23;20020;-82
2022/03/02 04:55:06;;;;;;;30.27;15.70;;;5.20;99.90;;;;;;6119412;23;20321;-83
2022/03/02 04:57:36;;;;;;;27.30;15.63;;;5.20;99.90;;;;;;6095581;23;20029;-83
2022/03/02 05:00:07;;;;;;;25.10;14.57;;;5.20;99.90;;;;;;6119170;23;20018;-83
2022/03/02 05:02:32;;;;;;;28.33;16.02;;;5.20;99.90;;;;;;6094735;23;20729;-82
2022/03/02 05:04:58;;;;;;;25.80;14.13;;;5.10;99.90;;;;;;6094488;23;20048;-82
2022/03/02 05:07:24;;;;;;;26.95;16.15;;;5.10;99.90;;;;;;6118375;23;20024;-82
2022/03/02 05:09:49;;;;;;;26.52;14.98;;;5.10;99.90;;;;;;6119100;23;20014;-82
2022/03/02 05:12:15;;;;;;;26.45;14.77;;;5.10;99.90;;;;;;6118927;23;20073;-82
2022/03/02 05:14:41;;;;;;;25.42;13.90;;;5.10;99.90;;;;;;6094948;23;20874;-83
2022/03/02 05:17:06;;;;;;;28.20;14.32;;;5.10;99.90;;;;;;6118954;23;20014;-82
2022/03/02 05:19:33;;;;;;;26.98;15.38;;;5.10;99.90;;;;;;6119469;23;20041;-82
2022/03/02 05:21:59;;;;;;;23.10;14.02;;;5.00;99.90;;;;;;6094443;23;20018;-82
2022/03/02 05:24:24;;;;;;;23.20;14.55;;;5.00;99.90;;;;;;6092431;23;20017;-82
2022/03/02 05:26:50;;;;;;;23.88;13.02;;;5.00;99.90;;;;;;6120081;23;20448;-83
2022/03/02 05:29:16;;;;;;;25.23;14.45;;;5.00;99.90;;;;;;6119202;23;20014;-82
2022/03/02 05:31:41;;;;;;;29.25;16.85;;;5.00;99.90;;;;;;6119394;23;20040;-82
2022/03/02 05:34:13;;;;;;;25.48;14.70;;;4.90;99.90;;;;;;6119746;23;20770;-82
2022/03/02 05:36:39;;;;;;;31.75;17.17;;;4.90;99.90;;;;;;6096127;23;20033;-82
2022/03/02 05:39:05;;;;;;;26.05;14.63;;;4.90;99.90;;;;;;6121049;23;20432;-82
2022/03/02 05:41:33;;;;;;;27.15;15.48;;;4.90;99.90;;;;;;6121750;23;20089;-82
2022/03/02 05:43:58;;;;;;;29.10;15.48;;;4.80;99.90;;;;;;6121607;23;20021;-83
2022/03/02 05:46:24;;;;;;;32.28;16.08;;;4.80;99.90;;;;;;6073424;23;20005;-83
2022/03/02 05:48:52;;;;;;;26.40;15.48;;;4.70;99.90;;;;;;6095948;23;20009;-82
2022/03/02 05:51:18;;;;;;;29.15;14.23;;;4.70;99.90;;;;;;6120798;23;20014;-82
2022/03/02 05:53:44;;;;;;;27.92;14.60;;;4.70;99.90;;;;;;6121626;23;20352;-82
2022/03/02 05:56:09;;;;;;;26.13;14.60;;;4.70;99.90;;;;;;6124204;23;20014;-82
2022/03/02 05:58:35;;;;;;;26.92;15.90;;;4.60;99.90;;;;;;6121605;23;20100;-82
2022/03/02 06:01:01;;;;;;;28.17;15.90;;;4.60;99.90;;;;;;6121325;23;20016;-82
2022/03/02 06:03:27;;;;;;;29.60;15.20;;;4.50;99.90;;;;;;6120122;23;20028;-82
2022/03/02 06:05:53;;;;;;;27.58;15.85;;;4.50;99.90;;;;;;6119947;23;20014;-82
2022/03/02 06:08:19;;;;;;;28.90;15.80;;;4.50;99.90;;;;;;6120512;23;20144;-82
2022/03/02 06:10:47;;;;;;;27.33;15.13;;;4.50;99.90;;;;;;6121191;23;20084;-82
2022/03/02 06:13:14;;;;;;;28.42;16.55;;;4.40;99.90;;;;;;6096151;23;20045;-82
2022/03/02 06:15:41;;;;;;;26.70;15.57;;;4.40;99.90;;;;;;6097255;23;20053;-82
2022/03/02 06:18:07;;;;;;;29.58;15.65;;;4.30;99.90;;;;;;6097685;23;20663;-82
2022/03/02 06:20:33;;;;;;;30.00;15.65;;;4.30;99.90;;;;;;6095754;23;20104;-83
2022/03/02 06:22:59;;;;;;;29.65;16.08;;;4.20;99.90;;;;;;6095232;23;20454;-82
2022/03/02 06:25:26;;;;;;;29.92;14.98;;;4.20;99.90;;;;;;6096549;23;20384;-82
2022/03/02 06:27:52;;;;;;;28.05;16.17;;;4.10;99.90;;;;;;6120507;23;20017;-83
2022/03/02 06:30:17;;;;;;;33.45;17.30;;;4.00;99.90;;;;;;6120546;23;20096;-82
2022/03/02 06:32:43;;;;;;;31.30;15.70;;;4.00;99.90;;;;;;6122235;23;20010;-82
2022/03/02 06:35:09;;;;;;;29.83;16.05;;;4.00;99.90;;;;;;6097683;23;20006;-82
2022/03/02 06:37:35;;;;;;;30.17;16.50;;;3.90;99.90;;;;;;6121478;23;20289;-82
2022/03/02 06:40:06;;;;;;;29.52;16.40;;;3.90;99.90;;;;;;6119996;23;20022;-82
2022/03/02 06:42:35;;;;;;;30.17;17.42;;;3.90;99.90;;;;;;6121525;23;20053;-83
2022/03/02 06:45:07;;;;;;;34.10;16.42;;;3.90;99.90;;;;;;6122806;23;20017;-82
2022/03/02 06:47:41;;;;;;;32.35;17.95;;;3.90;99.90;;;;;;6122045;23;20018;-82
2022/03/02 06:50:08;;;;;;;33.28;18.35;;;3.90;99.90;;;;;;6122361;23;20061;-82
2022/03/02 06:52:42;;;;;;;30.80;16.88;;;3.90;99.90;;;;;;6096873;23;20044;-83
2022/03/02 06:55:10;;;;;;;30.45;16.10;;;4.00;99.90;;;;;;6123129;23;20014;-82
2022/03/02 06:57:37;;;;;;;28.05;15.63;;;4.00;99.90;;;;;;6097549;23;20380;-82
2022/03/02 07:00:09;;;;;;;30.48;16.52;;;4.00;99.90;;;;;;6120173;23;20519;-82
2022/03/02 07:03:05;;;;;;;27.13;15.40;;;4.00;99.90;;;;;;6117446;23;20388;-82
2022/03/02 07:05:32;;;;;;;28.38;14.52;;;4.00;99.90;;;;;;6121739;23;20018;-82
2022/03/02 07:08:00;;;;;;;28.30;15.25;;;4.00;99.90;;;;;;6120681;23;20073;-83
2022/03/02 07:10:26;;;;;;;28.25;16.13;;;4.00;99.90;;;;;;6096594;23;20029;-82
2022/03/02 07:12:53;;;;;;;28.40;16.17;;;4.00;99.90;;;;;;6122104;23;20479;-82
2022/03/02 07:15:18;;;;;;;29.83;16.58;;;4.10;99.90;;;;;;6096059;23;20056;-82
2022/03/02 07:17:44;;;;;;;30.15;17.23;;;4.10;99.90;;;;;;6098609;23;20010;-82
2022/03/02 07:20:11;;;;;;;32.53;16.70;;;4.10;99.90;;;;;;6097201;23;20017;-82
2022/03/02 07:22:43;;;;;;;28.25;15.95;;;4.30;99.90;;;;;;6097035;23;20014;-82
2022/03/02 07:25:25;;;;;;;28.40;16.38;;;4.30;99.90;;;;;;6123313;23;20010;-81
2022/03/02 07:27:54;;;;;;;29.63;16.77;;;4.40;99.90;;;;;;6124050;23;20014;-81
2022/03/02 07:30:20;;;;;;;31.77;18.20;;;4.40;99.90;;;;;;6097000;23;20006;-81
2022/03/02 07:32:47;;;;;;;31.52;16.95;;;4.50;99.90;;;;;;6123424;23;20006;-81
2022/03/02 07:35:16;;;;;;;29.60;16.15;;;4.50;99.90;;;;;;6120229;23;20018;-81
2022/03/02 07:37:46;;;;;;;29.13;16.83;;;4.60;99.90;;;;;;6095951;23;20018;-82
2022/03/02 07:40:12;;;;;;;28.90;15.15;;;4.60;99.90;;;;;;6118840;23;20017;-82
2022/03/02 07:42:42;;;;;;;26.67;15.00;;;4.70;99.90;;;;;;6120247;23;20022;-82
2022/03/02 07:45:08;;;;;;;29.50;16.25;;;4.70;99.90;;;;;;6121879;23;20018;-82
2022/03/02 07:47:35;;;;;;;32.03;17.83;;;4.80;99.90;;;;;;6123686;23;20010;-81
2022/03/02 07:50:01;;;;;;;27.25;15.43;;;4.80;99.90;;;;;;6122705;23;20033;-81
2022/03/02 07:52:29;;;;;;;28.52;15.55;;;4.80;99.90;;;;;;6120210;23;20002;-81
2022/03/02 07:54:58;;;;;;;30.45;16.02;;;4.90;99.90;;;;;;6097803;23;20339;-81
2022/03/02 07:57:25;;;;;;;28.00;16.10;;;4.90;99.90;;;;;;6097526;23;20022;-82
2022/03/02 07:59:52;;;;;;;28.38;15.00;;;4.90;99.90;;;;;;6120969;23;20018;-82
2022/03/02 08:02:23;;;;;;;28.63;15.23;;;5.10;99.90;;;;;;6123089;23;20018;-82
2022/03/02 08:04:52;;;;;;;27.38;16.15;;;5.10;99.90;;;;;;6123638;23;20021;-82
2022/03/02 08:07:18;;;;;;;28.73;16.02;;;5.20;99.90;;;;;;6097210;23;20093;-81
2022/03/02 08:09:44;;;;;;;25.85;14.65;;;5.20;99.90;;;;;;6094953;23;20026;-82
2022/03/02 08:12:11;;;;;;;26.23;15.90;;;5.30;99.90;;;;;;6120215;23;20020;-82
2022/03/02 08:14:36;;;;;;;26.42;14.85;;;5.40;99.90;;;;;;6121785;23;20014;-82
2022/03/02 08:17:03;;;;;;;26.38;15.07;;;5.40;99.90;;;;;;6096181;23;20164;-82
2022/03/02 08:19:30;;;;;;;27.92;15.50;;;5.40;99.90;;;;;;6120645;23;20050;-82
2022/03/02 08:22:05;;;;;;;23.80;13.48;;;5.50;99.90;;;;;;6121067;23;20025;-82
2022/03/02 08:24:31;;;;;;;24.73;14.45;;;5.50;99.90;;;;;;6095887;23;20022;-82
2022/03/02 08:27:02;;;;;;;26.60;14.93;;;5.60;99.90;;;;;;6121636;23;20018;-82
2022/03/02 08:29:31;;;;;;;26.73;14.95;;;5.60;99.90;;;;;;6097169;23;20030;-82
2022/03/02 08:32:03;;;;;;;28.75;15.57;;;5.70;99.90;;;;;;6095316;23;20014;-82
2022/03/02 08:34:30;;;;;;;28.85;16.58;;;5.70;99.90;;;;;;6120453;23;20068;-82
2022/03/02 08:36:56;;;;;;;27.95;15.77;;;5.80;99.90;;;;;;6120135;23;20006;-82
2022/03/02 08:39:23;;;;;;;26.23;14.45;;;5.90;99.90;;;;;;6120874;23;20049;-81
2022/03/02 08:41:49;;;;;;;29.52;15.63;;;5.90;99.90;;;;;;6097012;23;20018;-82
2022/03/02 08:44:15;;;;;;;28.33;15.55;;;6.00;99.90;;;;;;6121297;23;20049;-82
2022/03/02 08:46:44;;;;;;;29.60;14.82;;;6.00;99.90;;;;;;6097131;23;20014;-82
2022/03/02 08:49:09;;;;;;;29.13;14.95;;;6.10;99.90;;;;;;6120800;23;20051;-82
2022/03/02 08:51:36;;;;;;;25.50;14.07;;;6.20;99.90;;;;;;6096208;23;20395;-82
2022/03/02 08:54:03;;;;;;;25.67;14.90;;;6.20;99.90;;;;;;6122185;23;20681;-82
2022/03/02 08:56:32;;;;;;;24.10;14.13;;;6.20;99.90;;;;;;6122221;23;20348;-83
2022/03/02 08:58:58;;;;;;;26.63;13.50;;;6.20;99.90;;;;;;6120903;23;20093;-82
2022/03/02 09:01:24;;;;;;;22.95;13.30;;;6.30;99.90;;;;;;6120596;23;20121;-82
2022/03/02 09:03:53;;;;;;;25.77;13.23;;;6.40;99.90;;;;;;6097495;23;20365;-82
2022/03/02 09:06:22;;;;;;;21.77;12.43;;;6.40;99.90;;;;;;6057777;23;20041;-82
2022/03/02 09:08:48;;;;;;;22.63;12.68;;;6.50;99.90;;;;;;6067723;23;20397;-82
2022/03/02 09:11:14;;;;;;;21.60;12.43;;;6.50;99.90;;;;;;6042736;23;20077;-82
2022/03/02 09:13:40;;;;;;;22.38;11.95;;;6.60;99.90;;;;;;6044388;23;20344;-82
2022/03/02 09:16:07;;;;;;;21.77;12.30;;;6.70;99.90;;;;;;6068097;23;20110;-82
2022/03/02 09:18:33;;;;;;;21.48;12.93;;;6.70;99.90;;;;;;6067938;23;20359;-81
2022/03/02 09:21:05;;;;;;;21.25;13.02;;;6.80;99.90;;;;;;6042880;23;20041;-82
2022/03/02 09:23:40;;;;;;;21.65;12.45;;;6.90;99.90;;;;;;6066852;23;20105;-82
2022/03/02 09:26:09;;;;;;;21.75;12.82;;;6.90;99.90;;;;;;6043499;23;20022;-82
2022/03/02 09:28:38;;;;;;;20.77;12.15;;;6.90;99.90;;;;;;6043178;23;20014;-82
2022/03/02 09:31:05;;;;;;;20.35;12.27;;;7.00;99.90;;;;;;6043706;23;20026;-82
2022/03/02 09:33:34;;;;;;;23.67;12.27;;;7.00;99.90;;;;;;6043900;23;20014;-82
2022/03/02 09:36:08;;;;;;;20.20;12.23;;;7.00;99.90;;;;;;6066145;23;20101;-82
2022/03/02 09:38:36;;;;;;;21.40;12.70;;;7.00;99.90;;;;;;6066165;23;20025;-82
2022/03/02 09:41:12;;;;;;;22.90;13.30;;;7.10;99.90;;;;;;6044364;23;20041;-82
2022/03/02 09:43:42;;;;;;;22.58;12.65;;;7.10;99.90;;;;;;6045540;23;20118;-82
2022/03/02 09:46:12;;;;;;;22.02;12.88;;;7.20;99.90;;;;;;6042116;23;20105;-82
2022/03/02 09:48:47;;;;;;;23.67;13.95;;;7.10;99.90;;;;;;6067956;23;20093;-83
2022/03/02 09:51:22;;;;;;;23.20;12.65;;;7.20;99.90;;;;;;6043168;23;20023;-82
2022/03/02 09:53:54;;;;;;;22.50;13.75;;;7.20;99.90;;;;;;6066272;23;20101;-83
2022/03/02 09:56:22;;;;;;;22.38;13.27;;;7.20;99.90;;;;;;6044772;23;20026;-83
2022/03/02 09:58:51;;;;;;;26.00;13.18;;;7.20;99.90;;;;;;6068376;23;20385;-82
2022/03/02 10:01:22;;;;;;;20.92;12.85;;;7.20;99.90;;;;;;6067167;23;20014;-82
2022/03/02 10:03:50;;;;;;;21.60;12.70;;;7.20;99.90;;;;;;6042765;23;20037;-83
2022/03/02 10:06:19;;;;;;;20.65;12.25;;;7.30;99.90;;;;;;6039981;23;20025;-82
2022/03/02 10:08:47;;;;;;;24.05;13.00;;;7.30;99.90;;;;;;6042058;23;20014;-82
2022/03/02 10:11:18;;;;;;;20.92;12.45;;;7.40;99.90;;;;;;6065373;23;20023;-82
2022/03/02 10:13:44;;;;;;;25.35;13.43;;;7.40;99.90;;;;;;6043450;23;20510;-81
2022/03/02 10:16:19;;;;;;;23.05;13.48;;;7.50;99.90;;;;;;6041723;23;20018;-81
2022/03/02 10:18:54;;;;;;;23.00;13.60;;;7.60;99.90;;;;;;6067764;23;20450;-81
2022/03/02 10:21:29;;;;;;;24.38;12.77;;;7.70;99.90;;;;;;6044682;23;20630;-81
2022/03/02 10:24:00;;;;;;;22.23;11.98;;;7.90;99.90;;;;;;6044932;23;20100;-81
2022/03/02 10:26:38;;;;;;;21.67;12.07;;;8.00;99.90;;;;;;6070074;23;20464;-81
2022/03/02 10:29:17;;;;;;;17.63;11.10;;;8.10;99.30;;;;;;6068897;23;20011;-81
2022/03/02 10:32:06;;;;;;;23.25;13.27;;;8.10;99.90;;;;;;6069653;23;20448;-82
2022/03/02 10:34:38;;;;;;;19.38;12.13;;;8.30;98.20;;;;;;6043237;23;20476;-82
2022/03/02 10:37:15;;;;;;;18.60;11.15;;;8.30;99.00;;;;;;6069372;23;20038;-83
2022/03/02 10:39:41;;;;;;;24.42;13.77;;;8.40;99.10;;;;;;6068414;23;20158;-82
2022/03/02 10:42:16;;;;;;;19.35;11.40;;;8.50;98.30;;;;;;6069023;23;20022;-82
2022/03/02 10:45:11;;;;;;;19.95;12.18;;;8.60;98.60;;;;;;6069875;23;20022;-82
2022/03/02 10:48:01;;;;;;;22.20;11.90;;;8.70;96.10;;;;;;6069339;23;20026;-82
2022/03/02 10:50:31;;;;;;;21.77;12.52;;;8.80;97.30;;;;;;6069407;23;20093;-82
2022/03/02 10:52:58;;;;;;;20.48;11.05;;;8.90;97.40;;;;;;6068033;23;20313;-82
2022/03/02 10:55:25;;;;;;;18.63;11.43;;;9.00;96.00;;;;;;6043562;23;20022;-83
2022/03/02 10:57:53;;;;;;;17.73;10.20;;;9.10;95.90;;;;;;6069415;23;20024;-82
2022/03/02 11:00:20;;;;;;;19.20;10.73;;;9.20;93.80;;;;;;6069935;23;20524;-82
2022/03/02 11:02:57;;;;;;;17.30;9.85;;;9.30;93.90;;;;;;6064020;23;20089;-82
2022/03/02 11:05:24;;;;;;;15.68;9.98;;;9.40;91.60;;;;;;6039014;23;20022;-82
2022/03/02 11:07:50;;;;;;;14.57;9.02;;;9.50;90.50;;;;;;6063066;23;20023;-82
2022/03/02 11:10:21;;;;;;;15.13;9.07;;;9.60;89.70;;;;;;6063604;23;20019;-82
2022/03/02 11:12:50;;;;;;;14.25;8.25;;;9.70;87.90;;;;;;6039464;23;20037;-82
2022/03/02 11:15:17;;;;;;;15.63;9.00;;;9.70;84.00;;;;;;6065295;23;20015;-82
2022/03/02 11:17:55;;;;;;;20.25;9.68;;;9.80;78.40;;;;;;6064727;23;20021;-82
2022/03/02 11:20:21;;;;;;;17.00;9.80;;;9.90;79.50;;;;;;6064834;23;20025;-82
2022/03/02 11:22:59;;;;;;;14.15;8.80;;;9.90;78.00;;;;;;6063161;23;20125;-82
2022/03/02 11:25:46;;;;;;;15.70;8.77;;;10.00;75.60;;;;;;6063830;23;20067;-83
2022/03/02 11:28:25;;;;;;;19.65;10.70;;;10.10;76.20;;;;;;6063637;23;20022;-82
2022/03/02 11:30:57;;;;;;;18.50;10.68;;;10.10;70.70;;;;;;6040529;23;20078;-82
2022/03/02 11:33:28;;;;;;;17.13;10.23;;;10.20;70.20;;;;;;6065823;23;20114;-82
2022/03/02 11:35:59;;;;;;;17.80;9.75;;;10.20;70.70;;;;;;6063923;23;20022;-82
2022/03/02 11:38:32;;;;;;;16.92;10.13;;;10.30;71.60;;;;;;6063149;23;20018;-81
2022/03/02 11:40:58;;;;;;;;;;;10.40;71.10;;;;;;6065405;23;20014;-82
2022/03/02 11:43:28;;;;;;;15.65;9.20;;;10.50;65.10;;;;;;6040416;23;20229;-81
2022/03/02 11:46:04;;;;;;;18.35;9.90;;;10.50;68.60;;;;;;6064136;23;20149;-82
2022/03/02 11:48:34;;;;;;;16.70;9.98;;;10.60;68.00;;;;;;6065081;23;20453;-82
2022/03/02 11:51:16;;;;;;;14.65;8.63;;;10.70;67.50;;;;;;6062725;23;20029;-81
2022/03/02 11:53:52;;;;;;;15.82;9.40;;;10.70;64.70;;;;;;6066253;23;20352;-81
2022/03/02 11:56:22;;;;;;;16.58;9.82;;;10.70;64.30;;;;;;6068992;23;20026;-82
2022/03/02 11:58:55;;;;;;;15.48;9.13;;;10.80;64.70;;;;;;6064039;23;20011;-82
2022/03/02 12:01:23;;;;;;;15.82;9.00;;;10.90;64.20;;;;;;6063641;23;20015;-82
2022/03/02 12:04:00;;;;;;;15.65;8.73;;;11.00;65.20;;;;;;6063779;23;20038;-82
2022/03/02 12:06:27;;;;;;;15.35;9.45;;;11.20;63.60;;;;;;6063929;23;20015;-81
2022/03/02 12:08:54;;;;;;;16.70;8.63;;;11.30;63.50;;;;;;6065738;23;20044;-81
2022/03/02 12:11:33;;;;;;;15.52;8.50;;;11.50;61.80;;;;;;6088781;23;20066;-81
2022/03/02 12:14:06;;;;;;;13.45;8.25;;;11.90;60.00;;;;;;6064078;23;20015;-82
2022/03/02 12:16:38;;;;;;;15.25;9.10;;;12.50;59.30;;;;;;6063235;23;20023;-81
2022/03/02 12:19:05;;;;;;;14.73;8.80;;;13.10;56.60;;;;;;6065145;23;20055;-82
2022/03/02 12:21:30;;;;;;;16.10;9.13;;;13.30;53.70;;;;;;6061811;23;20019;-81
2022/03/02 12:23:59;;;;;;;17.33;9.00;;;13.80;55.00;;;;;;6062908;23;20019;-82
2022/03/02 12:26:25;;;;;;;14.95;8.88;;;14.20;54.00;;;;;;6063160;23;20010;-82
2022/03/02 12:28:55;;;;;;;16.13;9.27;;;14.60;53.20;;;;;;6038538;23;20034;-81
2022/03/02 12:31:32;;;;;;;16.05;9.02;;;14.90;51.50;;;;;;6060513;23;20015;-82
2022/03/02 12:34:14;;;;;;;15.63;8.95;;;15.20;51.40;;;;;;6063920;23;20337;-81
2022/03/02 12:36:41;;;;;;;15.68;8.70;;;15.70;50.50;;;;;;6063454;23;20022;-82
2022/03/02 12:39:07;;;;;;;14.02;8.63;;;15.90;50.70;;;;;;6062134;23;20497;-81
2022/03/02 12:41:33;;;;;;;14.13;8.38;;;16.00;48.60;;;;;;6064397;23;20026;-82